Frontier, Wyoming
Current Conditions -  °F | °C
As of 9:35 PM on Wednesday 26 Nov 2014 (Local Time) from KFBR Reporting Station
Clear Clear  
Wind Chill: 32°   Ceiling: Unl
Heat Index: 40°   Visibility: 10mi
Dew Point: 23°   Wind: 16mph
Humidity: 49%   Direction: 240°WSW
Pressure: 30.4"   Gusts: 23mph
Location:  41.81°N, 110.54°W
Report Text: KFBR 270435Z AUTO 24014G20KT 10SM CLR 05/M05 A3040 RMK AO2 T00471051
Loading
Personal Weather Stations






























Interactive Weather Map New forecast layout! Learn more

10-Day Weather Forecast

Advertisements
Track Severe Weather on mobile